sensor_id;sensor_type;location;lat;lon;timestamp;P1;durP1;ratioP1;P2;durP2;ratioP2
77423;SDS011;66494;47.172;14.678;2023-06-14T00:00:21;8.25;;;4.82;;
77423;SDS011;66494;47.172;14.678;2023-06-14T00:01:22;5.43;;;4.65;;
77423;SDS011;66494;47.172;14.678;2023-06-14T00:02:22;8.55;;;5.05;;
77423;SDS011;66494;47.172;14.678;2023-06-14T00:03:22;7.32;;;5.05;;
77423;SDS011;66494;47.172;14.678;2023-06-14T00:04:24;7.20;;;4.75;;
77423;SDS011;66494;47.172;14.678;2023-06-14T00:05:25;5.40;;;4.22;;
77423;SDS011;66494;47.172;14.678;2023-06-14T00:06:26;6.25;;;4.63;;
77423;SDS011;66494;47.172;14.678;2023-06-14T00:07:36;7.72;;;5.13;;
77423;SDS011;66494;47.172;14.678;2023-06-14T00:08:36;7.53;;;5.43;;
77423;SDS011;66494;47.172;14.678;2023-06-14T00:09:37;6.05;;;4.88;;
77423;SDS011;66494;47.172;14.678;2023-06-14T00:10:37;7.15;;;4.93;;
77423;SDS011;66494;47.172;14.678;2023-06-14T00:11:38;7.10;;;4.80;;
77423;SDS011;66494;47.172;14.678;2023-06-14T00:12:38;6.50;;;5.05;;
77423;SDS011;66494;47.172;14.678;2023-06-14T00:13:39;8.10;;;4.80;;
77423;SDS011;66494;47.172;14.678;2023-06-14T00:15:40;6.22;;;4.30;;
77423;SDS011;66494;47.172;14.678;2023-06-14T00:16:40;6.15;;;5.30;;
77423;SDS011;66494;47.172;14.678;2023-06-14T00:17:44;5.90;;;4.28;;
77423;SDS011;66494;47.172;14.678;2023-06-14T00:18:47;6.30;;;4.80;;
77423;SDS011;66494;47.172;14.678;2023-06-14T00:19:48;7.38;;;4.80;;
77423;SDS011;66494;47.172;14.678;2023-06-14T00:20:48;5.35;;;4.32;;
77423;SDS011;66494;47.172;14.678;2023-06-14T00:21:49;6.60;;;5.20;;
77423;SDS011;66494;47.172;14.678;2023-06-14T00:23:50;8.20;;;4.53;;
77423;SDS011;66494;47.172;14.678;2023-06-14T00:24:51;6.25;;;4.78;;
77423;SDS011;66494;47.172;14.678;2023-06-14T00:25:51;9.95;;;5.15;;
77423;SDS011;66494;47.172;14.678;2023-06-14T00:26:51;6.82;;;4.80;;
77423;SDS011;66494;47.172;14.678;2023-06-14T00:27:51;7.32;;;5.45;;
77423;SDS011;66494;47.172;14.678;2023-06-14T00:28:52;7.95;;;5.00;;
77423;SDS011;66494;47.172;14.678;2023-06-14T00:29:53;7.32;;;4.95;;
77423;SDS011;66494;47.172;14.678;2023-06-14T00:30:53;7.40;;;5.22;;
77423;SDS011;66494;47.172;14.678;2023-06-14T00:32:53;7.53;;;5.30;;
77423;SDS011;66494;47.172;14.678;2023-06-14T00:33:53;8.68;;;5.15;;
77423;SDS011;66494;47.172;14.678;2023-06-14T00:34:54;10.63;;;6.00;;
77423;SDS011;66494;47.172;14.678;2023-06-14T00:36:54;5.93;;;4.70;;
77423;SDS011;66494;47.172;14.678;2023-06-14T00:37:55;6.00;;;5.18;;
77423;SDS011;66494;47.172;14.678;2023-06-14T00:38:55;6.95;;;5.72;;
77423;SDS011;66494;47.172;14.678;2023-06-14T00:39:55;7.53;;;5.85;;
77423;SDS011;66494;47.172;14.678;2023-06-14T00:40:55;7.25;;;5.40;;
77423;SDS011;66494;47.172;14.678;2023-06-14T00:41:56;7.95;;;6.15;;
77423;SDS011;66494;47.172;14.678;2023-06-14T00:42:57;7.13;;;5.07;;
77423;SDS011;66494;47.172;14.678;2023-06-14T00:43:57;7.20;;;5.78;;
77423;SDS011;66494;47.172;14.678;2023-06-14T00:44:59;7.85;;;5.30;;
77423;SDS011;66494;47.172;14.678;2023-06-14T00:46:59;5.23;;;4.53;;
77423;SDS011;66494;47.172;14.678;2023-06-14T00:48:00;5.85;;;4.65;;
77423;SDS011;66494;47.172;14.678;2023-06-14T00:49:00;7.25;;;4.85;;
77423;SDS011;66494;47.172;14.678;2023-06-14T00:51:01;6.47;;;4.53;;
77423;SDS011;66494;47.172;14.678;2023-06-14T00:52:04;6.70;;;4.85;;
77423;SDS011;66494;47.172;14.678;2023-06-14T00:53:04;7.80;;;5.03;;
77423;SDS011;66494;47.172;14.678;2023-06-14T00:54:04;7.80;;;4.47;;
77423;SDS011;66494;47.172;14.678;2023-06-14T00:55:05;5.72;;;4.28;;
77423;SDS011;66494;47.172;14.678;2023-06-14T00:57:05;6.00;;;4.30;;
77423;SDS011;66494;47.172;14.678;2023-06-14T00:58:07;7.25;;;4.88;;
77423;SDS011;66494;47.172;14.678;2023-06-14T00:59:07;5.55;;;4.57;;
77423;SDS011;66494;47.172;14.678;2023-06-14T01:00:08;5.97;;;4.18;;
77423;SDS011;66494;47.172;14.678;2023-06-14T01:01:09;6.35;;;4.90;;
77423;SDS011;66494;47.172;14.678;2023-06-14T01:02:10;6.28;;;4.80;;
77423;SDS011;66494;47.172;14.678;2023-06-14T01:03:10;9.90;;;4.47;;
77423;SDS011;66494;47.172;14.678;2023-06-14T01:04:12;6.80;;;4.45;;
77423;SDS011;66494;47.172;14.678;2023-06-14T01:05:12;6.15;;;4.65;;
77423;SDS011;66494;47.172;14.678;2023-06-14T01:08:30;6.80;;;5.00;;
77423;SDS011;66494;47.172;14.678;2023-06-14T01:09:37;4.95;;;4.40;;
77423;SDS011;66494;47.172;14.678;2023-06-14T01:11:59;5.07;;;4.22;;
77423;SDS011;66494;47.172;14.678;2023-06-14T01:14:04;4.82;;;4.28;;
77423;SDS011;66494;47.172;14.678;2023-06-14T01:15:06;6.32;;;4.68;;
77423;SDS011;66494;47.172;14.678;2023-06-14T01:16:07;6.57;;;4.95;;
77423;SDS011;66494;47.172;14.678;2023-06-14T01:17:08;5.57;;;4.60;;
77423;SDS011;66494;47.172;14.678;2023-06-14T01:18:15;6.10;;;4.57;;
77423;SDS011;66494;47.172;14.678;2023-06-14T01:19:18;5.45;;;3.95;;
77423;SDS011;66494;47.172;14.678;2023-06-14T01:20:22;6.05;;;4.57;;
77423;SDS011;66494;47.172;14.678;2023-06-14T01:21:28;6.47;;;5.03;;
77423;SDS011;66494;47.172;14.678;2023-06-14T01:22:29;6.07;;;4.28;;
77423;SDS011;66494;47.172;14.678;2023-06-14T01:23:29;6.07;;;4.07;;
77423;SDS011;66494;47.172;14.678;2023-06-14T01:24:32;7.55;;;4.65;;
77423;SDS011;66494;47.172;14.678;2023-06-14T01:25:34;5.43;;;4.93;;
77423;SDS011;66494;47.172;14.678;2023-06-14T01:27:37;6.32;;;4.50;;
77423;SDS011;66494;47.172;14.678;2023-06-14T01:28:37;5.65;;;4.13;;
77423;SDS011;66494;47.172;14.678;2023-06-14T01:29:38;10.77;;;5.15;;
77423;SDS011;66494;47.172;14.678;2023-06-14T01:30:39;9.63;;;4.93;;
77423;SDS011;66494;47.172;14.678;2023-06-14T01:31:44;8.88;;;4.97;;
77423;SDS011;66494;47.172;14.678;2023-06-14T01:32:45;8.40;;;5.80;;
77423;SDS011;66494;47.172;14.678;2023-06-14T01:34:46;7.37;;;4.93;;
77423;SDS011;66494;47.172;14.678;2023-06-14T01:35:47;8.43;;;6.28;;
77423;SDS011;66494;47.172;14.678;2023-06-14T01:37:48;7.83;;;5.37;;
77423;SDS011;66494;47.172;14.678;2023-06-14T01:38:49;7.05;;;5.35;;
77423;SDS011;66494;47.172;14.678;2023-06-14T01:40:50;6.23;;;4.90;;
77423;SDS011;66494;47.172;14.678;2023-06-14T01:41:51;8.73;;;5.22;;
77423;SDS011;66494;47.172;14.678;2023-06-14T01:42:52;4.97;;;4.20;;
77423;SDS011;66494;47.172;14.678;2023-06-14T01:43:52;5.45;;;4.15;;
77423;SDS011;66494;47.172;14.678;2023-06-14T01:45:53;6.88;;;4.65;;
77423;SDS011;66494;47.172;14.678;2023-06-14T01:46:53;10.73;;;4.60;;
77423;SDS011;66494;47.172;14.678;2023-06-14T01:47:54;6.47;;;4.40;;
77423;SDS011;66494;47.172;14.678;2023-06-14T01:48:54;4.97;;;4.15;;
77423;SDS011;66494;47.172;14.678;2023-06-14T01:49:55;5.20;;;4.05;;
77423;SDS011;66494;47.172;14.678;2023-06-14T01:50:55;5.80;;;4.30;;
77423;SDS011;66494;47.172;14.678;2023-06-14T01:51:55;5.45;;;4.30;;
77423;SDS011;66494;47.172;14.678;2023-06-14T01:52:55;7.55;;;4.63;;
77423;SDS011;66494;47.172;14.678;2023-06-14T01:53:56;6.13;;;5.25;;
77423;SDS011;66494;47.172;14.678;2023-06-14T01:54:57;7.78;;;4.95;;
77423;SDS011;66494;47.172;14.678;2023-06-14T01:56:58;6.20;;;5.15;;
77423;SDS011;66494;47.172;14.678;2023-06-14T01:57:59;6.38;;;4.97;;
77423;SDS011;66494;47.172;14.678;2023-06-14T01:58:59;7.25;;;5.30;;
77423;SDS011;66494;47.172;14.678;2023-06-14T01:59:59;8.07;;;5.22;;
77423;SDS011;66494;47.172;14.678;2023-06-14T02:02:02;6.07;;;4.85;;
77423;SDS011;66494;47.172;14.678;2023-06-14T02:03:02;7.55;;;5.15;;
77423;SDS011;66494;47.172;14.678;2023-06-14T02:04:04;5.85;;;4.40;;
77423;SDS011;66494;47.172;14.678;2023-06-14T02:05:04;7.38;;;4.57;;
77423;SDS011;66494;47.172;14.678;2023-06-14T02:06:05;5.90;;;4.63;;
77423;SDS011;66494;47.172;14.678;2023-06-14T02:07:05;5.88;;;4.50;;
77423;SDS011;66494;47.172;14.678;2023-06-14T02:08:05;5.70;;;4.53;;
77423;SDS011;66494;47.172;14.678;2023-06-14T02:09:06;7.10;;;4.50;;
77423;SDS011;66494;47.172;14.678;2023-06-14T02:10:07;6.63;;;4.57;;
77423;SDS011;66494;47.172;14.678;2023-06-14T02:11:07;5.90;;;5.25;;
77423;SDS011;66494;47.172;14.678;2023-06-14T02:12:08;5.30;;;4.57;;
77423;SDS011;66494;47.172;14.678;2023-06-14T02:13:08;4.43;;;3.65;;
77423;SDS011;66494;47.172;14.678;2023-06-14T02:14:08;6.68;;;4.60;;
77423;SDS011;66494;47.172;14.678;2023-06-14T02:15:11;4.75;;;4.20;;
77423;SDS011;66494;47.172;14.678;2023-06-14T02:16:16;7.72;;;4.88;;
77423;SDS011;66494;47.172;14.678;2023-06-14T02:17:17;7.90;;;5.40;;
77423;SDS011;66494;47.172;14.678;2023-06-14T02:18:17;6.40;;;4.70;;
77423;SDS011;66494;47.172;14.678;2023-06-14T02:19:18;6.25;;;5.05;;
77423;SDS011;66494;47.172;14.678;2023-06-14T02:20:19;6.93;;;4.88;;
77423;SDS011;66494;47.172;14.678;2023-06-14T02:21:19;7.22;;;4.55;;
77423;SDS011;66494;47.172;14.678;2023-06-14T02:22:19;8.73;;;4.28;;
77423;SDS011;66494;47.172;14.678;2023-06-14T02:23:21;8.10;;;5.45;;
77423;SDS011;66494;47.172;14.678;2023-06-14T02:24:22;8.00;;;5.15;;
77423;SDS011;66494;47.172;14.678;2023-06-14T02:25:23;6.35;;;5.13;;
77423;SDS011;66494;47.172;14.678;2023-06-14T02:26:23;5.28;;;4.65;;
77423;SDS011;66494;47.172;14.678;2023-06-14T02:27:24;6.75;;;5.28;;
77423;SDS011;66494;47.172;14.678;2023-06-14T02:28:24;5.88;;;4.80;;
77423;SDS011;66494;47.172;14.678;2023-06-14T02:29:24;5.65;;;4.53;;
77423;SDS011;66494;47.172;14.678;2023-06-14T02:30:24;8.80;;;5.75;;
77423;SDS011;66494;47.172;14.678;2023-06-14T02:31:25;5.97;;;5.35;;
77423;SDS011;66494;47.172;14.678;2023-06-14T02:33:27;6.13;;;4.97;;
77423;SDS011;66494;47.172;14.678;2023-06-14T02:34:27;6.63;;;5.10;;
77423;SDS011;66494;47.172;14.678;2023-06-14T02:35:29;5.68;;;4.88;;
77423;SDS011;66494;47.172;14.678;2023-06-14T02:36:29;6.05;;;4.68;;
77423;SDS011;66494;47.172;14.678;2023-06-14T02:37:30;6.55;;;4.95;;
77423;SDS011;66494;47.172;14.678;2023-06-14T02:38:30;10.40;;;5.05;;
77423;SDS011;66494;47.172;14.678;2023-06-14T02:40:30;7.28;;;4.55;;
77423;SDS011;66494;47.172;14.678;2023-06-14T02:41:31;7.60;;;5.60;;
77423;SDS011;66494;47.172;14.678;2023-06-14T02:42:31;7.07;;;4.95;;
77423;SDS011;66494;47.172;14.678;2023-06-14T02:43:31;6.03;;;5.03;;
77423;SDS011;66494;47.172;14.678;2023-06-14T02:45:32;7.22;;;5.10;;
77423;SDS011;66494;47.172;14.678;2023-06-14T02:46:32;8.07;;;4.80;;
77423;SDS011;66494;47.172;14.678;2023-06-14T02:47:32;7.00;;;5.07;;
77423;SDS011;66494;47.172;14.678;2023-06-14T02:48:33;7.82;;;5.65;;
77423;SDS011;66494;47.172;14.678;2023-06-14T02:49:33;6.93;;;5.18;;
77423;SDS011;66494;47.172;14.678;2023-06-14T02:50:33;6.88;;;4.97;;
77423;SDS011;66494;47.172;14.678;2023-06-14T02:51:33;8.75;;;5.82;;
77423;SDS011;66494;47.172;14.678;2023-06-14T02:52:34;8.60;;;5.35;;
77423;SDS011;66494;47.172;14.678;2023-06-14T02:53:35;7.70;;;5.13;;
77423;SDS011;66494;47.172;14.678;2023-06-14T02:54:35;8.95;;;5.18;;
77423;SDS011;66494;47.172;14.678;2023-06-14T02:55:35;6.65;;;4.85;;
77423;SDS011;66494;47.172;14.678;2023-06-14T02:56:39;7.38;;;4.85;;
77423;SDS011;66494;47.172;14.678;2023-06-14T02:58:40;8.07;;;4.73;;
77423;SDS011;66494;47.172;14.678;2023-06-14T02:59:41;6.13;;;4.72;;
77423;SDS011;66494;47.172;14.678;2023-06-14T03:00:41;6.35;;;5.00;;
77423;SDS011;66494;47.172;14.678;2023-06-14T03:01:42;10.30;;;4.53;;
77423;SDS011;66494;47.172;14.678;2023-06-14T03:02:42;5.05;;;4.22;;
77423;SDS011;66494;47.172;14.678;2023-06-14T03:03:43;6.25;;;4.32;;
77423;SDS011;66494;47.172;14.678;2023-06-14T03:04:43;6.60;;;4.85;;
77423;SDS011;66494;47.172;14.678;2023-06-14T03:05:45;6.22;;;5.00;;
77423;SDS011;66494;47.172;14.678;2023-06-14T03:06:47;8.80;;;4.40;;
77423;SDS011;66494;47.172;14.678;2023-06-14T03:07:50;5.80;;;4.10;;
77423;SDS011;66494;47.172;14.678;2023-06-14T03:08:50;5.63;;;4.70;;
77423;SDS011;66494;47.172;14.678;2023-06-14T03:09:51;7.07;;;5.20;;
77423;SDS011;66494;47.172;14.678;2023-06-14T03:10:52;5.68;;;4.53;;
77423;SDS011;66494;47.172;14.678;2023-06-14T03:11:53;5.53;;;4.88;;
77423;SDS011;66494;47.172;14.678;2023-06-14T03:12:53;6.03;;;4.20;;
77423;SDS011;66494;47.172;14.678;2023-06-14T03:13:53;7.25;;;4.82;;
77423;SDS011;66494;47.172;14.678;2023-06-14T03:14:53;6.05;;;4.68;;
77423;SDS011;66494;47.172;14.678;2023-06-14T03:15:56;7.47;;;5.18;;
77423;SDS011;66494;47.172;14.678;2023-06-14T03:16:57;6.45;;;5.00;;
77423;SDS011;66494;47.172;14.678;2023-06-14T03:18:59;6.35;;;4.20;;
77423;SDS011;66494;47.172;14.678;2023-06-14T03:19:59;5.07;;;4.10;;
77423;SDS011;66494;47.172;14.678;2023-06-14T03:21:00;7.72;;;5.22;;
77423;SDS011;66494;47.172;14.678;2023-06-14T03:22:00;8.23;;;4.63;;
77423;SDS011;66494;47.172;14.678;2023-06-14T03:23:00;10.15;;;5.05;;
77423;SDS011;66494;47.172;14.678;2023-06-14T03:24:01;7.07;;;5.13;;
77423;SDS011;66494;47.172;14.678;2023-06-14T03:25:03;6.50;;;5.00;;
77423;SDS011;66494;47.172;14.678;2023-06-14T03:26:04;5.57;;;4.45;;
77423;SDS011;66494;47.172;14.678;2023-06-14T03:27:05;6.60;;;4.72;;
77423;SDS011;66494;47.172;14.678;2023-06-14T03:28:05;7.43;;;4.97;;
77423;SDS011;66494;47.172;14.678;2023-06-14T03:29:05;8.63;;;4.50;;
77423;SDS011;66494;47.172;14.678;2023-06-14T03:30:06;8.30;;;5.03;;
77423;SDS011;66494;47.172;14.678;2023-06-14T03:31:06;6.90;;;4.70;;
77423;SDS011;66494;47.172;14.678;2023-06-14T03:32:07;5.57;;;4.80;;
77423;SDS011;66494;47.172;14.678;2023-06-14T03:33:07;6.47;;;5.30;;
77423;SDS011;66494;47.172;14.678;2023-06-14T03:34:08;12.20;;;4.68;;
77423;SDS011;66494;47.172;14.678;2023-06-14T03:35:08;6.20;;;5.32;;
77423;SDS011;66494;47.172;14.678;2023-06-14T03:36:10;8.15;;;4.55;;
77423;SDS011;66494;47.172;14.678;2023-06-14T03:37:10;8.63;;;5.15;;
77423;SDS011;66494;47.172;14.678;2023-06-14T03:38:11;6.30;;;4.72;;
77423;SDS011;66494;47.172;14.678;2023-06-14T03:39:11;8.65;;;5.43;;
77423;SDS011;66494;47.172;14.678;2023-06-14T03:40:12;9.80;;;5.03;;
77423;SDS011;66494;47.172;14.678;2023-06-14T03:42:13;9.37;;;4.77;;
77423;SDS011;66494;47.172;14.678;2023-06-14T03:43:13;10.35;;;5.70;;
77423;SDS011;66494;47.172;14.678;2023-06-14T03:44:15;7.47;;;6.00;;
77423;SDS011;66494;47.172;14.678;2023-06-14T03:45:15;8.10;;;5.60;;
77423;SDS011;66494;47.172;14.678;2023-06-14T03:46:15;8.45;;;5.25;;
77423;SDS011;66494;47.172;14.678;2023-06-14T03:47:16;8.18;;;5.65;;
77423;SDS011;66494;47.172;14.678;2023-06-14T03:48:17;8.45;;;5.30;;
77423;SDS011;66494;47.172;14.678;2023-06-14T03:49:17;7.05;;;4.78;;
77423;SDS011;66494;47.172;14.678;2023-06-14T03:50:17;7.47;;;5.22;;
77423;SDS011;66494;47.172;14.678;2023-06-14T03:51:18;6.57;;;5.45;;
77423;SDS011;66494;47.172;14.678;2023-06-14T03:52:19;7.03;;;5.28;;
77423;SDS011;66494;47.172;14.678;2023-06-14T03:53:19;10.95;;;5.57;;
77423;SDS011;66494;47.172;14.678;2023-06-14T03:54:22;9.52;;;5.18;;
77423;SDS011;66494;47.172;14.678;2023-06-14T03:55:22;6.38;;;4.75;;
77423;SDS011;66494;47.172;14.678;2023-06-14T03:56:25;8.98;;;5.40;;
77423;SDS011;66494;47.172;14.678;2023-06-14T03:57:25;9.43;;;4.90;;
77423;SDS011;66494;47.172;14.678;2023-06-14T03:58:26;5.95;;;4.70;;
77423;SDS011;66494;47.172;14.678;2023-06-14T03:59:26;8.00;;;4.60;;
77423;SDS011;66494;47.172;14.678;2023-06-14T04:00:26;7.88;;;5.13;;
77423;SDS011;66494;47.172;14.678;2023-06-14T04:01:27;7.10;;;5.22;;
77423;SDS011;66494;47.172;14.678;2023-06-14T04:02:29;5.82;;;4.78;;
77423;SDS011;66494;47.172;14.678;2023-06-14T04:03:29;6.68;;;5.50;;
77423;SDS011;66494;47.172;14.678;2023-06-14T04:04:30;8.45;;;5.15;;
77423;SDS011;66494;47.172;14.678;2023-06-14T04:05:30;8.85;;;6.85;;
77423;SDS011;66494;47.172;14.678;2023-06-14T04:06:31;9.05;;;6.10;;
77423;SDS011;66494;47.172;14.678;2023-06-14T04:07:34;12.15;;;5.90;;
77423;SDS011;66494;47.172;14.678;2023-06-14T04:08:39;5.85;;;5.25;;
77423;SDS011;66494;47.172;14.678;2023-06-14T04:09:41;8.55;;;6.20;;
77423;SDS011;66494;47.172;14.678;2023-06-14T04:10:41;9.35;;;5.97;;
77423;SDS011;66494;47.172;14.678;2023-06-14T04:11:41;10.00;;;6.07;;
77423;SDS011;66494;47.172;14.678;2023-06-14T04:12:42;7.57;;;5.65;;
77423;SDS011;66494;47.172;14.678;2023-06-14T04:13:42;9.25;;;5.68;;
77423;SDS011;66494;47.172;14.678;2023-06-14T04:14:43;9.75;;;5.75;;
77423;SDS011;66494;47.172;14.678;2023-06-14T04:15:43;7.55;;;5.45;;
77423;SDS011;66494;47.172;14.678;2023-06-14T04:16:46;6.47;;;5.13;;
77423;SDS011;66494;47.172;14.678;2023-06-14T04:17:46;7.93;;;5.28;;
77423;SDS011;66494;47.172;14.678;2023-06-14T04:18:46;9.15;;;5.28;;
77423;SDS011;66494;47.172;14.678;2023-06-14T04:19:48;10.18;;;5.78;;
77423;SDS011;66494;47.172;14.678;2023-06-14T04:20:48;7.03;;;5.53;;
77423;SDS011;66494;47.172;14.678;2023-06-14T04:21:48;6.65;;;5.47;;
77423;SDS011;66494;47.172;14.678;2023-06-14T04:22:49;9.40;;;6.38;;
77423;SDS011;66494;47.172;14.678;2023-06-14T04:24:52;5.97;;;4.68;;
77423;SDS011;66494;47.172;14.678;2023-06-14T04:25:53;7.72;;;5.28;;
77423;SDS011;66494;47.172;14.678;2023-06-14T04:26:53;5.88;;;4.97;;
77423;SDS011;66494;47.172;14.678;2023-06-14T04:27:54;6.15;;;5.03;;
77423;SDS011;66494;47.172;14.678;2023-06-14T04:28:55;5.60;;;4.97;;
77423;SDS011;66494;47.172;14.678;2023-06-14T04:29:56;5.85;;;4.72;;
77423;SDS011;66494;47.172;14.678;2023-06-14T04:30:57;6.97;;;4.75;;
77423;SDS011;66494;47.172;14.678;2023-06-14T04:32:01;6.53;;;4.85;;
77423;SDS011;66494;47.172;14.678;2023-06-14T04:33:01;7.75;;;4.80;;
77423;SDS011;66494;47.172;14.678;2023-06-14T04:34:05;5.97;;;5.05;;
77423;SDS011;66494;47.172;14.678;2023-06-14T04:35:06;6.22;;;4.93;;
77423;SDS011;66494;47.172;14.678;2023-06-14T04:37:07;8.35;;;5.00;;
77423;SDS011;66494;47.172;14.678;2023-06-14T04:38:09;8.40;;;5.35;;
77423;SDS011;66494;47.172;14.678;2023-06-14T04:39:10;7.05;;;5.32;;
77423;SDS011;66494;47.172;14.678;2023-06-14T04:40:10;6.32;;;4.88;;
77423;SDS011;66494;47.172;14.678;2023-06-14T04:41:10;6.43;;;4.68;;
77423;SDS011;66494;47.172;14.678;2023-06-14T04:43:11;5.77;;;4.40;;
77423;SDS011;66494;47.172;14.678;2023-06-14T04:44:15;10.73;;;5.15;;
77423;SDS011;66494;47.172;14.678;2023-06-14T04:45:17;9.07;;;5.88;;
77423;SDS011;66494;47.172;14.678;2023-06-14T04:46:17;6.88;;;5.22;;
77423;SDS011;66494;47.172;14.678;2023-06-14T04:47:17;6.38;;;5.30;;
77423;SDS011;66494;47.172;14.678;2023-06-14T04:49:20;9.38;;;5.28;;
77423;SDS011;66494;47.172;14.678;2023-06-14T04:50:23;6.70;;;4.72;;
77423;SDS011;66494;47.172;14.678;2023-06-14T04:51:24;8.93;;;5.28;;
77423;SDS011;66494;47.172;14.678;2023-06-14T04:52:29;6.30;;;4.95;;
77423;SDS011;66494;47.172;14.678;2023-06-14T04:53:30;9.85;;;5.80;;
77423;SDS011;66494;47.172;14.678;2023-06-14T04:54:31;9.05;;;6.30;;
77423;SDS011;66494;47.172;14.678;2023-06-14T04:55:35;8.20;;;5.43;;
77423;SDS011;66494;47.172;14.678;2023-06-14T04:56:36;12.40;;;4.80;;
77423;SDS011;66494;47.172;14.678;2023-06-14T04:57:37;10.18;;;5.38;;
77423;SDS011;66494;47.172;14.678;2023-06-14T04:58:38;5.95;;;4.57;;
77423;SDS011;66494;47.172;14.678;2023-06-14T04:59:38;6.95;;;5.65;;
77423;SDS011;66494;47.172;14.678;2023-06-14T05:00:38;5.80;;;3.95;;
77423;SDS011;66494;47.172;14.678;2023-06-14T05:01:39;6.55;;;4.90;;
77423;SDS011;66494;47.172;14.678;2023-06-14T05:02:39;6.13;;;5.00;;
77423;SDS011;66494;47.172;14.678;2023-06-14T05:03:40;5.72;;;4.93;;
77423;SDS011;66494;47.172;14.678;2023-06-14T05:04:41;5.88;;;5.25;;
77423;SDS011;66494;47.172;14.678;2023-06-14T05:06:42;5.28;;;3.88;;
77423;SDS011;66494;47.172;14.678;2023-06-14T05:07:44;7.32;;;5.90;;
77423;SDS011;66494;47.172;14.678;2023-06-14T05:08:45;6.45;;;4.43;;
77423;SDS011;66494;47.172;14.678;2023-06-14T05:09:45;7.90;;;5.05;;
77423;SDS011;66494;47.172;14.678;2023-06-14T05:10:45;7.65;;;5.40;;
77423;SDS011;66494;47.172;14.678;2023-06-14T05:11:46;6.43;;;5.30;;
77423;SDS011;66494;47.172;14.678;2023-06-14T05:12:47;11.35;;;5.07;;
77423;SDS011;66494;47.172;14.678;2023-06-14T05:13:48;9.27;;;5.10;;
77423;SDS011;66494;47.172;14.678;2023-06-14T05:14:48;5.32;;;4.65;;
77423;SDS011;66494;47.172;14.678;2023-06-14T05:16:49;8.00;;;4.80;;
77423;SDS011;66494;47.172;14.678;2023-06-14T05:17:50;8.07;;;4.90;;
77423;SDS011;66494;47.172;14.678;2023-06-14T05:18:55;6.05;;;4.38;;
77423;SDS011;66494;47.172;14.678;2023-06-14T05:19:55;8.68;;;5.82;;
77423;SDS011;66494;47.172;14.678;2023-06-14T05:20:58;10.20;;;5.45;;
77423;SDS011;66494;47.172;14.678;2023-06-14T05:21:58;7.85;;;5.65;;
77423;SDS011;66494;47.172;14.678;2023-06-14T05:22:59;7.07;;;5.20;;
77423;SDS011;66494;47.172;14.678;2023-06-14T05:23:59;9.20;;;4.80;;
77423;SDS011;66494;47.172;14.678;2023-06-14T05:25:00;6.18;;;4.88;;
77423;SDS011;66494;47.172;14.678;2023-06-14T05:26:00;8.82;;;5.15;;
77423;SDS011;66494;47.172;14.678;2023-06-14T05:27:02;7.93;;;4.65;;
77423;SDS011;66494;47.172;14.678;2023-06-14T05:28:03;8.13;;;5.85;;
77423;SDS011;66494;47.172;14.678;2023-06-14T05:29:03;8.88;;;5.13;;
77423;SDS011;66494;47.172;14.678;2023-06-14T05:30:04;9.05;;;6.00;;
77423;SDS011;66494;47.172;14.678;2023-06-14T05:31:04;9.38;;;5.68;;
77423;SDS011;66494;47.172;14.678;2023-06-14T05:32:04;6.85;;;5.82;;
77423;SDS011;66494;47.172;14.678;2023-06-14T05:34:05;13.75;;;10.05;;
77423;SDS011;66494;47.172;14.678;2023-06-14T05:35:05;29.63;;;20.58;;
77423;SDS011;66494;47.172;14.678;2023-06-14T05:36:06;19.42;;;13.77;;
77423;SDS011;66494;47.172;14.678;2023-06-14T05:37:06;59.72;;;39.47;;
77423;SDS011;66494;47.172;14.678;2023-06-14T05:38:06;47.15;;;31.65;;
77423;SDS011;66494;47.172;14.678;2023-06-14T05:40:08;39.80;;;28.58;;
77423;SDS011;66494;47.172;14.678;2023-06-14T05:41:09;102.25;;;67.25;;
77423;SDS011;66494;47.172;14.678;2023-06-14T05:43:09;27.38;;;18.02;;
77423;SDS011;66494;47.172;14.678;2023-06-14T05:44:10;17.80;;;13.32;;
77423;SDS011;66494;47.172;14.678;2023-06-14T05:45:10;9.10;;;6.15;;
77423;SDS011;66494;47.172;14.678;2023-06-14T05:46:11;9.18;;;6.43;;
77423;SDS011;66494;47.172;14.678;2023-06-14T05:47:11;7.65;;;5.15;;
77423;SDS011;66494;47.172;14.678;2023-06-14T05:48:11;9.48;;;5.97;;
77423;SDS011;66494;47.172;14.678;2023-06-14T05:49:11;8.43;;;5.55;;
77423;SDS011;66494;47.172;14.678;2023-06-14T05:50:12;7.88;;;5.20;;
77423;SDS011;66494;47.172;14.678;2023-06-14T05:51:12;8.65;;;5.57;;
77423;SDS011;66494;47.172;14.678;2023-06-14T05:52:12;11.25;;;6.53;;
77423;SDS011;66494;47.172;14.678;2023-06-14T05:54:13;6.32;;;4.55;;
77423;SDS011;66494;47.172;14.678;2023-06-14T05:55:13;11.05;;;5.72;;
77423;SDS011;66494;47.172;14.678;2023-06-14T05:56:14;6.35;;;5.07;;
77423;SDS011;66494;47.172;14.678;2023-06-14T05:57:14;7.93;;;5.60;;
77423;SDS011;66494;47.172;14.678;2023-06-14T05:58:14;9.00;;;5.05;;
77423;SDS011;66494;47.172;14.678;2023-06-14T05:59:14;8.80;;;6.32;;
77423;SDS011;66494;47.172;14.678;2023-06-14T06:00:15;9.40;;;5.93;;
77423;SDS011;66494;47.172;14.678;2023-06-14T06:01:15;7.97;;;5.35;;
77423;SDS011;66494;47.172;14.678;2023-06-14T06:02:16;7.38;;;5.30;;
77423;SDS011;66494;47.172;14.678;2023-06-14T06:03:16;11.20;;;5.65;;
77423;SDS011;66494;47.172;14.678;2023-06-14T06:04:17;8.05;;;5.75;;
77423;SDS011;66494;47.172;14.678;2023-06-14T06:05:17;6.35;;;4.68;;
77423;SDS011;66494;47.172;14.678;2023-06-14T06:06:17;10.50;;;5.90;;
77423;SDS011;66494;47.172;14.678;2023-06-14T06:07:17;7.53;;;5.70;;
77423;SDS011;66494;47.172;14.678;2023-06-14T06:08:18;7.47;;;5.60;;
77423;SDS011;66494;47.172;14.678;2023-06-14T06:09:18;10.02;;;5.65;;
77423;SDS011;66494;47.172;14.678;2023-06-14T06:10:19;12.52;;;5.97;;
77423;SDS011;66494;47.172;14.678;2023-06-14T06:11:19;10.57;;;5.55;;
77423;SDS011;66494;47.172;14.678;2023-06-14T06:12:20;9.65;;;6.30;;
77423;SDS011;66494;47.172;14.678;2023-06-14T06:13:20;9.50;;;5.97;;
77423;SDS011;66494;47.172;14.678;2023-06-14T06:14:20;10.95;;;5.45;;
77423;SDS011;66494;47.172;14.678;2023-06-14T06:15:21;10.82;;;6.10;;
77423;SDS011;66494;47.172;14.678;2023-06-14T06:17:21;7.75;;;6.05;;
77423;SDS011;66494;47.172;14.678;2023-06-14T06:18:21;11.35;;;6.55;;
77423;SDS011;66494;47.172;14.678;2023-06-14T06:19:22;8.30;;;6.18;;
77423;SDS011;66494;47.172;14.678;2023-06-14T06:20:23;8.68;;;5.88;;
77423;SDS011;66494;47.172;14.678;2023-06-14T06:21:27;8.35;;;5.25;;
77423;SDS011;66494;47.172;14.678;2023-06-14T06:22:28;7.32;;;5.05;;
77423;SDS011;66494;47.172;14.678;2023-06-14T06:23:28;7.68;;;5.10;;
77423;SDS011;66494;47.172;14.678;2023-06-14T06:24:28;9.70;;;5.40;;
77423;SDS011;66494;47.172;14.678;2023-06-14T06:26:28;7.95;;;5.60;;
77423;SDS011;66494;47.172;14.678;2023-06-14T06:27:29;9.35;;;5.47;;
77423;SDS011;66494;47.172;14.678;2023-06-14T06:28:30;11.20;;;5.20;;
77423;SDS011;66494;47.172;14.678;2023-06-14T06:29:30;7.10;;;4.43;;
77423;SDS011;66494;47.172;14.678;2023-06-14T06:30:30;8.52;;;5.13;;
77423;SDS011;66494;47.172;14.678;2023-06-14T06:32:30;9.35;;;5.18;;
77423;SDS011;66494;47.172;14.678;2023-06-14T06:33:31;7.72;;;5.57;;
77423;SDS011;66494;47.172;14.678;2023-06-14T06:35:31;9.70;;;5.57;;
77423;SDS011;66494;47.172;14.678;2023-06-14T06:36:33;6.72;;;4.78;;
77423;SDS011;66494;47.172;14.678;2023-06-14T06:37:33;6.85;;;5.18;;
77423;SDS011;66494;47.172;14.678;2023-06-14T06:39:33;6.95;;;4.88;;
77423;SDS011;66494;47.172;14.678;2023-06-14T06:40:33;5.90;;;4.63;;